createdAt,value
2019-02-18T00:00:34.059Z,20.80
2019-02-18T00:03:02.435Z,20.80
2019-02-18T00:05:30.727Z,20.80
2019-02-18T00:07:59.099Z,20.70
2019-02-18T00:10:27.539Z,20.70
2019-02-18T00:12:55.899Z,20.70
2019-02-18T00:15:24.187Z,20.70
2019-02-18T00:17:52.506Z,20.70
2019-02-18T00:20:20.843Z,20.70
2019-02-18T00:22:49.217Z,20.60
2019-02-18T00:25:17.585Z,20.70
2019-02-18T00:27:45.967Z,20.70
2019-02-18T00:30:14.390Z,20.60
2019-02-18T00:32:42.754Z,20.20
2019-02-18T00:35:11.146Z,20.60
2019-02-18T00:37:39.510Z,20.60
2019-02-18T00:40:09.442Z,20.60
2019-02-18T00:42:37.906Z,20.60
2019-02-18T00:45:09.514Z,20.50
2019-02-18T00:47:38.070Z,20.60
2019-02-18T00:50:08.132Z,20.60
2019-02-18T00:52:36.504Z,20.50
2019-02-18T00:55:06.498Z,20.50
2019-02-18T00:57:34.788Z,20.50
2019-02-18T01:00:04.316Z,20.50
2019-02-18T01:02:32.749Z,20.50
2019-02-18T01:05:01.123Z,20.50
2019-02-18T01:07:34.811Z,20.50
2019-02-18T01:09:59.443Z,20.50
2019-02-18T01:12:27.794Z,20.40
2019-02-18T01:14:56.210Z,20.40
2019-02-18T01:17:24.554Z,20.40
2019-02-18T01:19:52.864Z,20.40
2019-02-18T01:22:21.219Z,20.40
2019-02-18T01:24:49.619Z,20.40
2019-02-18T01:27:17.957Z,20.40
2019-02-18T01:29:46.236Z,20.40
2019-02-18T01:32:14.527Z,20.30
2019-02-18T01:34:42.807Z,20.30
2019-02-18T01:37:11.253Z,20.30
2019-02-18T01:39:39.531Z,20.30
2019-02-18T01:42:07.910Z,20.30
2019-02-18T01:44:36.185Z,20.30
2019-02-18T01:47:04.500Z,20.30
2019-02-18T01:49:32.862Z,20.30
2019-02-18T01:52:01.171Z,20.30
2019-02-18T01:54:29.528Z,20.30
2019-02-18T01:56:57.905Z,20.30
2019-02-18T01:59:26.263Z,20.30
2019-02-18T02:01:54.595Z,20.20
2019-02-18T02:04:22.939Z,20.20
2019-02-18T02:06:51.447Z,20.20
2019-02-18T02:09:19.810Z,20.20
2019-02-18T02:11:48.187Z,20.20
2019-02-18T02:14:16.526Z,20.20
2019-02-18T02:16:44.837Z,20.20
2019-02-18T02:19:13.217Z,20.10
2019-02-18T02:21:41.563Z,20.20
2019-02-18T02:24:09.969Z,20.10
2019-02-18T02:26:38.331Z,20.10
2019-02-18T02:29:06.692Z,20.10
2019-02-18T02:31:35.094Z,20.10
2019-02-18T02:34:03.577Z,20.10
2019-02-18T02:36:32.022Z,20.10
2019-02-18T02:39:00.513Z,20.10
2019-02-18T02:41:28.862Z,20.10
2019-02-18T02:43:57.165Z,20.00
2019-02-18T02:46:26.371Z,20.00
2019-02-18T02:48:54.784Z,20.00
2019-02-18T02:51:23.058Z,20.00
2019-02-18T02:53:51.477Z,20.00
2019-02-18T02:56:19.834Z,20.00
2019-02-18T02:58:48.178Z,20.00
2019-02-18T03:01:16.524Z,19.90
2019-02-18T03:03:44.892Z,20.00
2019-02-18T03:06:13.263Z,19.90
2019-02-18T03:08:41.670Z,20.00
2019-02-18T03:11:09.952Z,19.90
2019-02-18T03:13:38.304Z,19.90
2019-02-18T03:16:07.075Z,19.90
2019-02-18T03:18:35.356Z,19.90
2019-02-18T03:21:03.660Z,19.90
2019-02-18T03:23:32.015Z,19.90
2019-02-18T03:26:00.386Z,19.90
2019-02-18T03:28:53.188Z,19.80
2019-02-18T03:31:24.630Z,19.80
2019-02-18T03:34:07.916Z,19.80
2019-02-18T03:36:36.297Z,19.80
2019-02-18T03:39:05.597Z,19.80
2019-02-18T03:41:33.965Z,19.80
2019-02-18T03:44:02.377Z,19.80
2019-02-18T03:46:30.755Z,19.80
2019-02-18T03:48:59.035Z,19.80
2019-02-18T03:51:27.435Z,19.80
2019-02-18T03:53:55.781Z,19.80
2019-02-18T03:56:24.133Z,19.70
2019-02-18T03:58:52.437Z,19.70
2019-02-18T04:01:20.876Z,19.70
2019-02-18T04:03:49.272Z,19.70
2019-02-18T04:06:17.613Z,19.70
2019-02-18T04:08:45.986Z,19.70
2019-02-18T04:11:14.358Z,19.70
2019-02-18T04:13:42.930Z,19.70
2019-02-18T04:16:11.496Z,19.60
2019-02-18T04:18:39.849Z,19.60
2019-02-18T04:21:08.202Z,19.60
2019-02-18T04:23:36.537Z,19.60
2019-02-18T04:26:04.835Z,19.60
2019-02-18T04:28:33.213Z,19.60
2019-02-18T04:31:01.579Z,19.60
2019-02-18T04:33:29.978Z,19.60
2019-02-18T04:35:58.328Z,19.60
2019-02-18T04:38:26.695Z,19.60
2019-02-18T04:40:54.987Z,19.50
2019-02-18T04:43:23.348Z,19.60
2019-02-18T04:45:51.701Z,19.50
2019-02-18T04:48:20.076Z,19.50
2019-02-18T04:50:48.448Z,19.50
2019-02-18T04:53:16.813Z,19.50
2019-02-18T04:55:45.200Z,19.50
2019-02-18T04:58:13.568Z,19.50
2019-02-18T05:00:42.540Z,19.50
2019-02-18T05:03:11.489Z,19.50
2019-02-18T05:05:39.859Z,19.50
2019-02-18T05:08:08.158Z,19.50
2019-02-18T05:10:36.536Z,19.50
2019-02-18T05:13:04.833Z,19.50
2019-02-18T05:15:33.208Z,19.50
2019-02-18T05:18:01.570Z,19.50
2019-02-18T05:20:30.512Z,19.50
2019-02-18T05:22:58.867Z,19.40
2019-02-18T05:25:27.189Z,19.40
2019-02-18T05:27:55.700Z,19.50
2019-02-18T05:30:24.073Z,19.40
2019-02-18T05:32:52.987Z,19.40
2019-02-18T05:35:21.372Z,19.40
2019-02-18T05:37:49.746Z,19.40
2019-02-18T05:40:18.084Z,19.40
2019-02-18T05:42:46.607Z,19.40
2019-02-18T05:45:15.001Z,19.40
2019-02-18T05:47:43.679Z,19.40
2019-02-18T05:50:12.627Z,19.40
2019-02-18T05:52:42.263Z,19.40
2019-02-18T05:55:11.221Z,19.30
2019-02-18T05:57:39.860Z,19.30
2019-02-18T06:00:11.178Z,19.30
2019-02-18T06:02:39.896Z,19.30
2019-02-18T06:05:08.281Z,19.30
2019-02-18T06:07:36.657Z,19.30
2019-02-18T06:10:08.027Z,19.30
2019-02-18T06:12:36.451Z,19.30
2019-02-18T06:15:07.504Z,19.30
2019-02-18T06:17:35.875Z,19.30
2019-02-18T06:20:06.546Z,19.30
2019-02-18T06:22:34.921Z,19.30
2019-02-18T06:25:03.685Z,19.30
2019-02-18T06:27:32.069Z,19.30
2019-02-18T06:30:00.458Z,19.30
2019-02-18T06:32:28.825Z,19.30
2019-02-18T06:34:57.197Z,19.20
2019-02-18T06:37:25.571Z,19.20
2019-02-18T06:39:54.077Z,19.20
2019-02-18T06:42:22.562Z,19.20
2019-02-18T06:44:52.487Z,19.20
2019-02-18T06:47:21.770Z,19.10
2019-02-18T06:49:50.342Z,19.10
2019-02-18T06:52:18.656Z,19.10
2019-02-18T06:54:48.038Z,19.10
2019-02-18T06:57:18.166Z,19.10
2019-02-18T06:59:48.288Z,19.10
2019-02-18T07:02:18.248Z,19.10
2019-02-18T07:04:48.230Z,19.10
2019-02-18T07:07:27.019Z,19.10
2019-02-18T07:09:57.012Z,19.10
2019-02-18T07:12:27.063Z,19.10
2019-02-18T07:14:55.411Z,19.10
2019-02-18T07:17:23.906Z,19.10
2019-02-18T07:19:52.302Z,19.10
2019-02-18T07:22:20.650Z,19.10
2019-02-18T07:24:48.986Z,19.20
2019-02-18T07:27:17.323Z,19.20
2019-02-18T07:29:45.625Z,19.30
2019-02-18T07:32:13.993Z,19.30
2019-02-18T07:34:42.372Z,19.30
2019-02-18T07:37:10.733Z,19.40
2019-02-18T07:39:39.101Z,19.40
2019-02-18T07:42:07.435Z,19.40
2019-02-18T07:44:35.719Z,19.50
2019-02-18T07:47:04.089Z,19.50
2019-02-18T07:49:32.401Z,19.50
2019-02-18T07:52:00.809Z,19.60
2019-02-18T07:54:29.166Z,19.60
2019-02-18T07:56:57.533Z,19.60
2019-02-18T07:59:25.900Z,19.70
2019-02-18T08:01:54.259Z,19.70
2019-02-18T08:04:22.625Z,19.70
2019-02-18T08:06:50.983Z,19.80
2019-02-18T08:09:19.379Z,19.80
2019-02-18T08:11:47.661Z,19.80
2019-02-18T08:14:16.285Z,19.80
2019-02-18T08:16:44.645Z,19.80
2019-02-18T08:19:15.500Z,19.90
2019-02-18T08:21:43.052Z,19.90
2019-02-18T08:24:11.361Z,20.00
2019-02-18T08:26:39.734Z,19.90
2019-02-18T08:29:08.125Z,20.00
2019-02-18T08:31:36.512Z,20.00
2019-02-18T08:34:04.854Z,20.00
2019-02-18T08:36:33.268Z,20.10
2019-02-18T08:39:01.636Z,20.10
2019-02-18T08:41:30.018Z,20.10
2019-02-18T08:43:58.379Z,20.20
2019-02-18T08:46:26.761Z,20.20
2019-02-18T08:48:55.120Z,20.30
2019-02-18T08:51:23.538Z,20.30
2019-02-18T08:53:51.906Z,20.30
2019-02-18T08:56:20.235Z,20.40
2019-02-18T08:58:48.593Z,20.40
2019-02-18T09:01:16.956Z,20.40
2019-02-18T09:03:45.326Z,20.50
2019-02-18T09:06:13.602Z,20.50
2019-02-18T09:08:41.989Z,20.50
2019-02-18T09:11:10.364Z,20.50
2019-02-18T09:13:38.684Z,20.60
2019-02-18T09:16:07.061Z,20.60
2019-02-18T09:18:35.436Z,20.60
2019-02-18T09:21:04.008Z,20.70
2019-02-18T09:23:34.013Z,20.70
2019-02-18T09:26:02.466Z,20.70
2019-02-18T09:28:30.855Z,20.70
2019-02-18T09:30:59.136Z,20.80
2019-02-18T09:33:27.511Z,20.80
2019-02-18T09:35:55.796Z,20.80
2019-02-18T09:38:25.491Z,20.80
2019-02-18T09:40:54.059Z,20.90
2019-02-18T09:43:22.359Z,20.90
2019-02-18T09:45:50.653Z,20.90
2019-02-18T09:48:18.955Z,20.90
2019-02-18T09:50:47.318Z,21.00
2019-02-18T09:53:15.689Z,21.00
2019-02-18T09:55:44.017Z,21.00
2019-02-18T09:58:12.467Z,21.10
2019-02-18T10:00:40.809Z,21.00
2019-02-18T10:03:09.315Z,21.00
2019-02-18T10:05:37.688Z,21.10
2019-02-18T10:08:06.123Z,21.10
2019-02-18T10:10:34.436Z,21.10
2019-02-18T10:13:02.749Z,21.10
2019-02-18T10:15:31.038Z,21.20
2019-02-18T10:17:59.405Z,21.20
2019-02-18T10:20:27.785Z,21.20
2019-02-18T10:22:56.163Z,21.20
2019-02-18T10:25:24.636Z,21.30
2019-02-18T10:27:53.022Z,21.30
2019-02-18T10:30:21.340Z,21.30
2019-02-18T10:32:49.757Z,21.40
2019-02-18T10:35:18.066Z,21.30
2019-02-18T10:37:54.796Z,21.30
2019-02-18T10:40:16.534Z,21.30
2019-02-18T10:42:44.826Z,21.30
2019-02-18T10:45:13.359Z,21.30
2019-02-18T10:47:41.736Z,21.30
2019-02-18T10:50:11.370Z,21.30
2019-02-18T10:52:39.734Z,21.30
2019-02-18T10:55:09.954Z,21.30
2019-02-18T10:57:38.666Z,21.30
2019-02-18T11:00:12.802Z,21.30
2019-02-18T11:02:41.163Z,21.30
2019-02-18T11:05:09.522Z,21.30
2019-02-18T11:07:37.908Z,21.40
2019-02-18T11:10:09.771Z,21.40
2019-02-18T11:12:38.059Z,21.30
2019-02-18T11:15:08.585Z,21.40
2019-02-18T11:17:39.202Z,21.40
2019-02-18T11:20:11.454Z,21.40
2019-02-18T11:22:39.822Z,21.40
2019-02-18T11:25:10.375Z,21.40
2019-02-18T11:27:38.760Z,21.40
2019-02-18T11:30:10.437Z,21.50
2019-02-18T11:32:38.811Z,21.40
2019-02-18T11:35:07.680Z,21.50
2019-02-18T11:37:36.066Z,21.50
2019-02-18T11:40:10.859Z,21.50
2019-02-18T11:42:39.285Z,21.50
2019-02-18T11:45:10.687Z,21.50
2019-02-18T11:47:39.079Z,21.60
2019-02-18T11:50:09.888Z,21.50
2019-02-18T11:52:38.245Z,21.60
2019-02-18T11:55:09.504Z,21.60
2019-02-18T11:57:38.050Z,21.60
2019-02-18T12:00:09.845Z,21.60
2019-02-18T12:02:38.222Z,21.60
2019-02-18T12:05:08.928Z,21.60
2019-02-18T12:07:37.369Z,21.60
2019-02-18T12:10:13.213Z,21.60
2019-02-18T12:12:41.991Z,21.70
2019-02-18T12:15:14.574Z,21.70
2019-02-18T12:17:42.937Z,21.70
2019-02-18T12:20:15.202Z,21.70
2019-02-18T12:22:43.564Z,21.70
2019-02-18T12:25:13.006Z,21.70
2019-02-18T12:27:41.901Z,21.70
2019-02-18T12:30:14.880Z,21.70
2019-02-18T12:32:43.302Z,21.70
2019-02-18T12:35:11.696Z,21.70
2019-02-18T12:37:40.046Z,21.70
2019-02-18T12:40:10.830Z,21.70
2019-02-18T12:42:39.277Z,21.70
2019-02-18T12:45:11.871Z,21.70
2019-02-18T12:47:40.254Z,21.70
2019-02-18T12:50:10.062Z,21.70
2019-02-18T12:52:38.436Z,21.70
2019-02-18T12:55:08.694Z,21.70
2019-02-18T12:57:37.376Z,21.70
2019-02-18T13:00:09.199Z,21.70
2019-02-18T13:02:44.248Z,21.70
2019-02-18T13:05:08.136Z,21.70
2019-02-18T13:07:36.515Z,21.70
2019-02-18T13:10:06.792Z,21.70
2019-02-18T13:12:35.432Z,21.70
2019-02-18T13:15:06.377Z,21.70
2019-02-18T13:17:34.838Z,21.70
2019-02-18T13:20:03.206Z,21.70
2019-02-18T13:22:31.583Z,21.70
2019-02-18T13:24:59.944Z,21.70
2019-02-18T13:27:28.334Z,21.70
2019-02-18T13:29:56.682Z,21.70
2019-02-18T13:32:25.371Z,21.70
2019-02-18T13:34:53.854Z,21.70
2019-02-18T13:37:22.219Z,21.70
2019-02-18T13:39:50.592Z,21.70
2019-02-18T13:42:18.947Z,21.70
2019-02-18T13:44:47.341Z,21.60
2019-02-18T13:47:15.701Z,21.60
2019-02-18T13:49:44.195Z,21.70
2019-02-18T13:52:12.564Z,21.70
2019-02-18T13:54:40.969Z,21.60
2019-02-18T13:57:10.286Z,21.70
2019-02-18T13:59:38.869Z,21.70
2019-02-18T14:02:07.525Z,21.70
2019-02-18T14:04:36.201Z,21.70
2019-02-18T14:07:04.590Z,21.70
2019-02-18T14:09:33.163Z,21.70
2019-02-18T14:12:01.539Z,21.70
2019-02-18T14:14:29.893Z,21.70
2019-02-18T14:16:58.273Z,21.70
2019-02-18T14:19:27.041Z,21.70
2019-02-18T14:21:55.426Z,21.70
2019-02-18T14:24:23.790Z,21.70
2019-02-18T14:26:52.163Z,21.70
2019-02-18T14:29:20.529Z,21.60
2019-02-18T14:31:48.909Z,21.70
2019-02-18T14:34:17.281Z,21.70
2019-02-18T14:36:45.667Z,21.70
2019-02-18T14:39:15.689Z,21.70
2019-02-18T14:41:44.054Z,21.70
2019-02-18T14:44:12.416Z,21.70
2019-02-18T14:46:40.924Z,21.60
2019-02-18T14:49:09.261Z,21.60
2019-02-18T14:51:38.052Z,21.60
2019-02-18T14:54:06.408Z,21.60
2019-02-18T14:56:34.796Z,21.60
2019-02-18T14:59:03.279Z,21.60
2019-02-18T15:01:31.636Z,21.60
2019-02-18T15:04:00.008Z,21.60
2019-02-18T15:06:28.404Z,21.60
2019-02-18T15:08:56.799Z,21.60
2019-02-18T15:11:25.154Z,21.60
2019-02-18T15:13:53.570Z,21.60
2019-02-18T15:16:22.139Z,21.60
2019-02-18T15:18:50.514Z,21.60
2019-02-18T15:21:18.916Z,21.60
2019-02-18T15:23:47.487Z,21.50
2019-02-18T15:26:16.062Z,21.50
2019-02-18T15:28:44.445Z,21.50
2019-02-18T15:31:12.841Z,21.50
2019-02-18T15:33:41.212Z,21.50
2019-02-18T15:36:09.580Z,21.50
2019-02-18T15:38:38.085Z,21.50
2019-02-18T15:41:06.461Z,21.50
2019-02-18T15:43:34.939Z,21.50
2019-02-18T15:46:03.399Z,21.50
2019-02-18T15:48:32.122Z,21.40
2019-02-18T15:51:00.505Z,21.40
2019-02-18T15:53:28.877Z,21.40
2019-02-18T15:55:57.648Z,21.40
2019-02-18T15:58:26.059Z,21.40
2019-02-18T16:00:54.446Z,21.50
2019-02-18T16:03:22.835Z,21.40
2019-02-18T16:05:51.231Z,21.50
2019-02-18T16:08:19.731Z,21.40
2019-02-18T16:10:48.707Z,21.50
2019-02-18T16:13:17.053Z,21.40
2019-02-18T16:15:45.405Z,21.50
2019-02-18T16:18:13.787Z,21.50
2019-02-18T16:20:42.428Z,21.50
2019-02-18T16:23:10.937Z,21.40
2019-02-18T16:25:39.299Z,21.40
2019-02-18T16:28:08.074Z,21.40
2019-02-18T16:30:36.454Z,21.40
2019-02-18T16:33:04.812Z,21.40
2019-02-18T16:35:33.477Z,21.40
2019-02-18T16:38:01.862Z,21.40
2019-02-18T16:40:30.556Z,21.40
2019-02-18T16:42:59.395Z,21.40
2019-02-18T16:45:28.112Z,21.40
2019-02-18T16:47:56.460Z,21.40
2019-02-18T16:50:24.974Z,21.40
2019-02-18T16:52:53.329Z,21.40
2019-02-18T16:55:21.714Z,21.30
2019-02-18T16:57:50.467Z,21.30
2019-02-18T17:00:23.270Z,21.40
2019-02-18T17:02:51.629Z,21.30
2019-02-18T17:05:20.015Z,21.30
2019-02-18T17:07:48.656Z,21.30
2019-02-18T17:10:17.020Z,21.30
2019-02-18T17:12:45.884Z,21.30
2019-02-18T17:15:14.276Z,21.30
2019-02-18T17:17:42.633Z,21.30
2019-02-18T17:20:11.013Z,21.30
2019-02-18T17:22:39.377Z,21.20
2019-02-18T17:25:11.236Z,21.30
2019-02-18T17:27:39.671Z,21.20
2019-02-18T17:30:11.547Z,21.30
2019-02-18T17:32:39.901Z,21.30
2019-02-18T17:35:12.038Z,21.30
2019-02-18T17:37:40.480Z,21.20
2019-02-18T17:40:13.891Z,21.30
2019-02-18T17:42:43.563Z,21.20
2019-02-18T17:45:14.068Z,21.20
2019-02-18T17:47:43.167Z,21.20
2019-02-18T17:50:13.697Z,21.20
2019-02-18T17:52:42.098Z,21.20
2019-02-18T17:55:15.280Z,21.20
2019-02-18T17:57:43.887Z,21.20
2019-02-18T18:00:21.684Z,21.10
2019-02-18T18:02:50.167Z,21.20
2019-02-18T18:05:19.482Z,21.10
2019-02-18T18:07:47.824Z,21.10
2019-02-18T18:10:18.014Z,21.20
2019-02-18T18:12:46.415Z,21.10
2019-02-18T18:15:19.021Z,21.10
2019-02-18T18:17:47.610Z,21.20
2019-02-18T18:20:15.983Z,21.20
2019-02-18T18:22:44.335Z,21.10
2019-02-18T18:25:14.454Z,21.10
2019-02-18T18:27:42.871Z,21.10
2019-02-18T18:30:13.436Z,21.10
2019-02-18T18:32:41.871Z,21.20
2019-02-18T18:35:11.999Z,21.10
2019-02-18T18:37:40.495Z,21.20
2019-02-18T18:40:14.972Z,21.20
2019-02-18T18:42:43.323Z,21.10
2019-02-18T18:45:15.611Z,21.10
2019-02-18T18:47:44.246Z,21.20
2019-02-18T18:50:17.898Z,21.20
2019-02-18T18:52:46.572Z,21.20
2019-02-18T18:55:14.988Z,21.10
2019-02-18T18:57:43.469Z,21.10
2019-02-18T19:00:15.515Z,21.20
2019-02-18T19:02:43.885Z,21.10
2019-02-18T19:05:12.245Z,21.20
2019-02-18T19:07:40.918Z,21.10
2019-02-18T19:10:09.757Z,21.20
2019-02-18T19:12:38.159Z,21.10
2019-02-18T19:15:09.808Z,21.20
2019-02-18T19:17:38.216Z,21.20
2019-02-18T19:20:08.144Z,21.20
2019-02-18T19:22:36.566Z,21.20
2019-02-18T19:25:06.544Z,21.10
2019-02-18T19:27:35.162Z,21.10
2019-02-18T19:30:08.639Z,21.10
2019-02-18T19:32:37.674Z,21.10
2019-02-18T19:35:08.046Z,21.10
2019-02-18T19:37:36.651Z,21.20
2019-02-18T19:40:08.497Z,21.20
2019-02-18T19:42:36.879Z,21.10
2019-02-18T19:45:08.705Z,21.20
2019-02-18T19:47:37.101Z,21.20
2019-02-18T19:50:07.391Z,21.10
2019-02-18T19:52:35.891Z,21.10
2019-02-18T19:55:05.841Z,21.10
2019-02-18T19:57:34.793Z,21.20
2019-02-18T20:00:03.177Z,21.10
2019-02-18T20:02:31.820Z,21.20
2019-02-18T20:05:00.274Z,21.20
2019-02-18T20:07:28.702Z,21.10
2019-02-18T20:09:57.325Z,21.20
2019-02-18T20:12:25.639Z,21.20
2019-02-18T20:14:54.032Z,21.20
2019-02-18T20:17:22.401Z,21.20
2019-02-18T20:19:50.757Z,21.20
2019-02-18T20:22:19.135Z,21.20
2019-02-18T20:24:47.441Z,21.20
2019-02-18T20:27:15.815Z,21.30
2019-02-18T20:29:44.179Z,21.30
2019-02-18T20:32:12.599Z,21.30
2019-02-18T20:34:41.419Z,21.30
2019-02-18T20:37:09.774Z,21.30
2019-02-18T20:39:38.178Z,21.30
2019-02-18T20:42:06.550Z,21.20
2019-02-18T20:44:34.918Z,21.30
2019-02-18T20:47:03.278Z,21.30
2019-02-18T20:49:32.058Z,21.30
2019-02-18T20:52:00.402Z,21.30
2019-02-18T20:54:28.832Z,21.30
2019-02-18T20:56:57.202Z,21.30
2019-02-18T20:59:25.586Z,21.30
2019-02-18T21:01:54.106Z,21.30
2019-02-18T21:04:22.460Z,21.40
2019-02-18T21:06:50.842Z,21.30
2019-02-18T21:09:19.236Z,21.30
2019-02-18T21:11:47.614Z,21.30
2019-02-18T21:14:16.390Z,21.30
2019-02-18T21:16:44.854Z,21.30
2019-02-18T21:19:13.227Z,21.30
2019-02-18T21:21:41.878Z,21.30
2019-02-18T21:24:10.246Z,21.30
2019-02-18T21:26:38.595Z,21.30
2019-02-18T21:29:06.943Z,21.30
2019-02-18T21:31:35.446Z,21.30
2019-02-18T21:34:03.841Z,21.30
2019-02-18T21:36:32.513Z,21.20
2019-02-18T21:39:00.858Z,21.30
2019-02-18T21:41:29.141Z,21.30
2019-02-18T21:43:57.520Z,21.30
2019-02-18T21:46:25.863Z,21.30
2019-02-18T21:48:54.171Z,21.30
2019-02-18T21:51:22.544Z,21.30
2019-02-18T21:53:50.875Z,21.30
2019-02-18T21:56:19.237Z,21.30
2019-02-18T21:58:47.613Z,21.30
2019-02-18T22:01:16.237Z,21.30
2019-02-18T22:03:44.681Z,21.30
2019-02-18T22:06:13.082Z,21.30
2019-02-18T22:08:41.769Z,21.20
2019-02-18T22:11:10.345Z,21.30
2019-02-18T22:13:38.713Z,21.20
2019-02-18T22:16:07.104Z,21.20
2019-02-18T22:18:35.507Z,21.30
2019-02-18T22:21:03.971Z,21.30
2019-02-18T22:23:32.438Z,21.20
2019-02-18T22:26:00.993Z,21.20
2019-02-18T22:28:29.317Z,21.20
2019-02-18T22:30:57.673Z,21.20
2019-02-18T22:33:26.086Z,21.20
2019-02-18T22:35:54.448Z,21.20
2019-02-18T22:38:22.906Z,21.20
2019-02-18T22:40:51.267Z,21.10
2019-02-18T22:43:20.190Z,21.10
2019-02-18T22:45:48.576Z,21.20
2019-02-18T22:48:17.426Z,21.10
2019-02-18T22:50:45.820Z,21.10
2019-02-18T22:53:14.208Z,21.10
2019-02-18T22:55:42.584Z,21.10
2019-02-18T22:58:10.932Z,21.10
2019-02-18T23:00:44.142Z,21.10
2019-02-18T23:03:12.427Z,21.10
2019-02-18T23:05:40.802Z,21.00
2019-02-18T23:08:09.167Z,21.00
2019-02-18T23:10:37.532Z,21.00
2019-02-18T23:13:06.442Z,21.00
2019-02-18T23:15:35.341Z,21.00
2019-02-18T23:18:03.817Z,20.90
2019-02-18T23:20:32.231Z,20.90
2019-02-18T23:23:00.520Z,20.90
2019-02-18T23:25:28.898Z,20.90
2019-02-18T23:27:57.338Z,20.90
2019-02-18T23:30:25.834Z,20.90
2019-02-18T23:32:54.592Z,20.90
2019-02-18T23:35:22.966Z,20.80
2019-02-18T23:37:51.251Z,20.80
2019-02-18T23:40:19.558Z,20.80
2019-02-18T23:42:47.855Z,20.80
2019-02-18T23:45:16.209Z,20.80
2019-02-18T23:47:44.572Z,20.80
2019-02-18T23:50:12.952Z,20.80
2019-02-18T23:52:41.499Z,20.70
2019-02-18T23:55:09.846Z,20.80
2019-02-18T23:57:38.154Z,20.70
